Time;durP1;ratioP1;P1;durP2;ratioP2;P2;SDS_P1;SDS_P2;PMS_P1;PMS_P2;Temp;Humidity;BMP_temperature;BMP_pressure;BME280_temperature;BME280_humidity;BME280_pressure;Samples;Min_cycle;Max_cycle;Signal;HPM_P1;HPM_P2
2022/07/31 00:00:05;;;;;;;7.28;5.63;;;;;;;26.64;100.00;100711.09;4955743;29;20035;-77
2022/07/31 00:02:51;;;;;;;7.63;5.70;;;;;;;26.50;100.00;100711.38;4955834;29;20429;-77
2022/07/31 00:05:37;;;;;;;7.25;5.90;;;;;;;25.99;100.00;100709.41;4956354;29;20159;-75
2022/07/31 00:08:23;;;;;;;7.63;6.00;;;;;;;26.18;100.00;100723.91;4956517;29;20106;-75
2022/07/31 00:11:10;;;;;;;7.15;6.07;;;;;;;26.10;100.00;100720.13;4956154;29;20086;-76
2022/07/31 00:13:56;;;;;;;9.35;6.18;;;;;;;26.01;100.00;100734.31;4956734;28;20121;-76
2022/07/31 00:16:41;;;;;;;7.25;6.00;;;;;;;25.96;100.00;100729.31;4955713;29;20133;-77
2022/07/31 00:19:27;;;;;;;6.30;5.70;;;;;;;26.36;100.00;100732.31;4955671;29;20485;-76
2022/07/31 00:22:13;;;;;;;7.20;6.05;;;;;;;26.02;100.00;100733.34;4955607;29;20031;-76
2022/07/31 00:24:59;;;;;;;8.20;5.93;;;;;;;25.70;100.00;100733.22;4942432;29;20458;-76
2022/07/31 00:27:45;;;;;;;8.70;6.38;;;;;;;25.50;100.00;100733.94;4956661;29;20377;-75
2022/07/31 00:30:31;;;;;;;8.35;6.13;;;;;;;25.56;100.00;100730.75;4955808;29;20109;-76
2022/07/31 00:33:17;;;;;;;8.10;6.18;;;;;;;25.91;100.00;100730.63;4956304;28;20343;-77
2022/07/31 00:36:03;;;;;;;8.27;6.03;;;;;;;26.01;100.00;100729.81;4958111;29;20027;-75
2022/07/31 00:38:49;;;;;;;7.80;6.38;;;;;;;25.95;100.00;100734.81;4958855;29;20131;-76
2022/07/31 00:41:41;;;;;;;8.23;6.22;;;;;;;25.82;100.00;100728.69;4958550;29;20027;-75
2022/07/31 00:44:26;;;;;;;6.90;6.18;;;;;;;25.78;100.00;100713.81;4958883;28;20366;-76
2022/07/31 00:47:12;;;;;;;8.15;6.35;;;;;;;26.19;100.00;100711.31;4958570;29;20185;-76
2022/07/31 00:49:58;;;;;;;7.95;6.88;;;;;;;25.76;100.00;100708.56;4957673;29;20041;-76
2022/07/31 00:52:44;;;;;;;8.05;7.07;;;;;;;25.99;100.00;100718.34;4944902;29;20027;-77
2022/07/31 00:55:30;;;;;;;12.25;7.38;;;;;;;25.44;100.00;100723.66;4958053;28;20508;-76
2022/07/31 00:58:16;;;;;;;10.90;6.63;;;;;;;26.04;100.00;100717.97;4958725;29;20023;-77
2022/07/31 01:01:01;;;;;;;9.27;6.70;;;;;;;25.63;100.00;100715.88;4958880;29;20023;-76
2022/07/31 01:03:47;;;;;;;9.73;6.93;;;;;;;25.82;100.00;100726.00;4958708;28;20035;-76
2022/07/31 01:06:33;;;;;;;11.93;7.68;;;;;;;25.59;100.00;100718.94;4958309;29;20031;-77
2022/07/31 01:09:19;;;;;;;8.55;7.55;;;;;;;25.50;100.00;100727.69;4958746;29;20104;-76
2022/07/31 01:12:24;;;;;;;9.43;7.47;;;;;;;25.35;100.00;100720.88;4958670;29;20031;-76
2022/07/31 01:15:12;;;;;;;9.45;8.38;;;;;;;25.12;100.00;100709.19;4957739;28;20032;-75
2022/07/31 01:17:59;;;;;;;10.10;7.80;;;;;;;25.50;100.00;100716.97;4957990;29;20078;-76
2022/07/31 01:20:48;;;;;;;12.68;8.13;;;;;;;25.36;100.00;100709.16;4959192;29;20031;-76
2022/07/31 01:24:07;;;;;;;9.07;8.05;;;;;;;24.96;100.00;100707.84;4957633;28;20108;-76
2022/07/31 01:27:00;;;;;;;10.07;8.02;;;;;;;25.31;100.00;100703.31;4939269;29;20512;-76
2022/07/31 01:29:52;;;;;;;10.35;8.43;;;;;;;25.32;100.00;100711.22;4958561;29;20080;-77
2022/07/31 01:32:45;;;;;;;13.57;9.57;;;;;;;24.77;100.00;100703.03;4957930;29;20027;-76
2022/07/31 01:35:40;;;;;;;11.38;9.20;;;;;;;25.07;100.00;100705.19;4944679;29;20117;-76
2022/07/31 01:38:35;;;;;;;10.55;8.23;;;;;;;24.71;100.00;100706.16;4957794;29;20033;-77
2022/07/31 01:41:27;;;;;;;10.60;9.25;;;;;;;24.85;100.00;100702.44;4957630;29;20019;-77
2022/07/31 01:44:15;;;;;;;9.98;8.40;;;;;;;25.32;100.00;100700.50;4958013;28;20042;-76
2022/07/31 01:47:02;;;;;;;13.70;8.68;;;;;;;25.50;100.00;100709.78;4956880;29;20031;-76
2022/07/31 01:49:50;;;;;;;9.52;8.52;;;;;;;25.86;100.00;100706.84;4957276;29;20059;-76
2022/07/31 01:52:38;;;;;;;13.02;9.07;;;;;;;25.36;100.00;100693.91;4957795;29;20114;-75
2022/07/31 01:55:25;;;;;;;10.38;8.43;;;;;;;24.92;100.00;100693.81;4957101;28;20028;-76
2022/07/31 01:58:12;;;;;;;9.57;8.50;;;;;;;25.03;100.00;100690.31;4957367;29;20129;-76
2022/07/31 02:01:00;;;;;;;10.23;8.50;;;;;;;25.20;100.00;100685.31;4957072;29;20097;-76
2022/07/31 02:03:48;;;;;;;9.90;8.50;;;;;;;25.24;100.00;100685.97;4958243;28;20077;-76
2022/07/31 02:06:34;;;;;;;9.68;8.75;;;;;;;25.01;100.00;100679.72;4957238;29;20031;-76
2022/07/31 02:09:22;;;;;;;9.43;8.20;;;;;;;25.39;100.00;100679.44;4957280;29;20090;-76
2022/07/31 02:12:10;;;;;;;12.30;8.93;;;;;;;24.87;100.00;100676.38;4957523;29;20464;-76
2022/07/31 02:14:57;;;;;;;12.57;8.63;;;;;;;25.13;100.00;100677.88;4957983;28;20094;-76
2022/07/31 02:17:44;;;;;;;12.88;9.25;;;;;;;25.13;100.00;100668.03;4956608;29;20023;-76
2022/07/31 02:20:31;;;;;;;13.20;9.55;;;;;;;25.14;100.00;100672.41;4957297;29;20069;-76
2022/07/31 02:23:17;;;;;;;13.73;9.43;;;;;;;25.24;100.00;100664.50;4956783;28;20361;-77
2022/07/31 02:26:03;;;;;;;10.68;8.73;;;;;;;24.96;100.00;100662.25;4956502;29;20051;-76
2022/07/31 02:28:51;;;;;;;11.98;9.30;;;;;;;24.65;100.00;100657.53;4957448;29;20039;-75
2022/07/31 02:31:37;;;;;;;10.93;9.32;;;;;;;24.95;100.00;100660.56;4943766;28;20109;-76
2022/07/31 02:34:23;;;;;;;10.75;9.65;;;;;;;25.02;100.00;100648.38;4957140;28;20077;-76
2022/07/31 02:37:10;;;;;;;10.82;9.27;;;;;;;25.10;100.00;100651.31;4956432;29;20050;-75
2022/07/31 02:39:58;;;;;;;9.95;8.80;;;;;;;25.28;100.00;100647.22;4956968;29;20027;-77
2022/07/31 02:42:45;;;;;;;10.32;9.32;;;;;;;25.21;100.00;100646.81;4955875;29;20035;-76
2022/07/31 02:45:32;;;;;;;10.60;9.50;;;;;;;25.17;100.00;100636.44;4956353;28;20497;-76
2022/07/31 02:48:18;;;;;;;11.05;9.45;;;;;;;25.20;100.00;100650.47;4956499;29;20038;-75
2022/07/31 02:51:05;;;;;;;12.60;9.55;;;;;;;25.77;100.00;100648.53;4943500;29;20031;-76
2022/07/31 02:53:51;;;;;;;11.25;9.57;;;;;;;25.97;100.00;100653.19;4956955;28;20454;-76
2022/07/31 02:56:37;;;;;;;9.43;8.43;;;;;;;25.63;100.00;100648.78;4956152;28;20054;-76
2022/07/31 02:59:23;;;;;;;9.80;8.85;;;;;;;25.65;100.00;100649.53;4943262;29;20023;-77
2022/07/31 03:02:09;;;;;;;10.57;9.48;;;;;;;25.10;100.00;100651.31;4956128;29;20054;-76
2022/07/31 03:04:55;;;;;;;11.73;8.88;;;;;;;25.22;100.00;100663.75;4957221;28;20506;-76
2022/07/31 03:07:42;;;;;;;10.77;9.10;;;;;;;25.04;100.00;100658.00;4956032;29;20027;-76
2022/07/31 03:10:27;;;;;;;11.13;9.25;;;;;;;24.90;100.00;100655.53;4956290;29;20027;-76
2022/07/31 03:13:15;;;;;;;11.80;9.40;;;;;;;25.01;100.00;100654.72;4955280;29;20027;-76
2022/07/31 03:16:05;;;;;;;13.35;9.48;;;;;;;25.05;100.00;100662.41;4943278;29;20045;-75
2022/07/31 03:18:52;;;;;;;10.25;9.15;;;;;;;25.40;100.00;100659.66;4955984;29;20091;-76
2022/07/31 03:21:39;;;;;;;10.57;9.13;;;;;;;25.48;100.00;100662.59;4941950;29;20031;-75
2022/07/31 03:24:25;;;;;;;13.18;9.60;;;;;;;25.07;100.00;100665.81;4955842;28;20033;-76
2022/07/31 03:27:10;;;;;;;11.05;9.68;;;;;;;25.47;100.00;100669.78;4955789;29;20057;-76
2022/07/31 03:29:56;;;;;;;10.82;9.68;;;;;;;25.13;100.00;100672.53;4955952;29;20366;-75
2022/07/31 03:32:42;;;;;;;12.80;9.57;;;;;;;25.32;100.00;100678.19;4955751;29;20038;-76
2022/07/31 03:35:28;;;;;;;10.88;9.60;;;;;;;25.38;100.00;100672.31;4956126;28;20023;-76
2022/07/31 03:38:14;;;;;;;11.15;8.82;;;;;;;25.48;100.00;100673.31;4955795;29;20046;-75
2022/07/31 03:41:00;;;;;;;10.98;9.55;;;;;;;25.13;100.00;100683.25;4956210;29;20354;-76
2022/07/31 03:43:46;;;;;;;11.43;9.85;;;;;;;25.27;100.00;100677.69;4955546;28;20098;-75
2022/07/31 03:46:32;;;;;;;11.20;10.10;;;;;;;25.43;100.00;100683.56;4943290;28;20031;-76
2022/07/31 03:49:19;;;;;;;11.52;9.15;;;;;;;25.46;100.00;100686.00;4955848;28;20023;-75
2022/07/31 03:52:05;;;;;;;10.43;9.32;;;;;;;25.59;100.00;100681.38;4941849;29;20027;-77
2022/07/31 03:54:51;;;;;;;11.25;10.13;;;;;;;25.17;100.00;100682.91;4955463;28;20019;-76
2022/07/31 03:57:37;;;;;;;10.90;9.27;;;;;;;24.91;100.00;100685.91;4956520;29;20036;-75
2022/07/31 04:00:26;;;;;;;12.38;9.50;;;;;;;25.06;100.00;100688.25;4942602;29;20383;-75
2022/07/31 04:03:13;;;;;;;12.15;10.27;;;;;;;25.06;100.00;100685.56;4942066;29;20031;-76
2022/07/31 04:05:59;;;;;;;12.38;10.05;;;;;;;25.29;100.00;100684.66;4955813;29;20506;-75
2022/07/31 04:08:44;;;;;;;13.60;10.35;;;;;;;25.00;100.00;100680.66;4943912;29;20461;-76
2022/07/31 04:11:30;;;;;;;12.80;10.23;;;;;;;25.17;100.00;100690.09;4946370;29;20027;-75
2022/07/31 04:14:16;;;;;;;10.75;9.65;;;;;;;25.24;100.00;100692.16;4959775;28;20024;-75
2022/07/31 04:17:02;;;;;;;11.60;10.40;;;;;;;24.09;100.00;100690.38;4959271;29;20402;-76
2022/07/31 04:19:48;;;;;;;13.18;11.02;;;;;;;24.27;100.00;100699.72;4959648;29;20035;-76
2022/07/31 04:22:34;;;;;;;11.63;10.43;;;;;;;24.32;100.00;100702.91;4959553;29;20069;-76
2022/07/31 04:25:19;;;;;;;10.90;9.80;;;;;;;24.67;100.00;100703.84;4958347;28;20112;-76
2022/07/31 04:28:05;;;;;;;11.20;10.07;;;;;;;24.65;100.00;100711.13;4959989;29;20027;-76
2022/07/31 04:30:51;;;;;;;12.07;10.55;;;;;;;25.05;100.00;100705.31;4958359;29;20089;-76
2022/07/31 04:33:37;;;;;;;12.30;11.02;;;;;;;24.79;100.00;100705.59;4946337;28;20524;-72
2022/07/31 04:36:23;;;;;;;11.32;10.13;;;;;;;24.80;100.00;100701.94;4958927;29;20057;-73
2022/07/31 04:39:09;;;;;;;11.48;10.27;;;;;;;24.67;100.00;100704.69;4946644;29;20406;-73
2022/07/31 04:41:57;;;;;;;12.65;10.75;;;;;;;25.07;100.00;100703.34;4946201;29;20141;-73
2022/07/31 04:44:43;;;;;;;11.45;10.18;;;;;;;24.99;100.00;100700.41;4958921;28;20339;-73
2022/07/31 04:47:29;;;;;;;11.73;10.55;;;;;;;25.01;100.00;100711.88;4947546;29;20035;-73
2022/07/31 04:50:15;;;;;;;12.32;10.88;;;;;;;25.08;100.00;100713.09;4960318;29;20031;-74
2022/07/31 04:53:01;;;;;;;14.07;11.90;;;;;;;24.63;100.00;100715.78;4959829;29;20027;-74
2022/07/31 04:56:32;;;;;;;11.90;10.68;;;;;;;24.50;100.00;100714.91;4960419;29;20370;-73
2022/07/31 04:58:52;;;;;;;16.33;11.82;;;;;;;24.27;100.00;100727.34;4959760;29;20470;-74
2022/07/31 05:01:39;;;;;;;13.00;11.43;;;;;;;24.30;100.00;100735.16;4958400;29;20090;-74
2022/07/31 05:04:25;;;;;;;13.52;11.82;;;;;;;24.33;100.00;100739.44;4959370;28;20031;-73
2022/07/31 05:07:11;;;;;;;13.80;11.43;;;;;;;24.03;100.00;100742.53;4958062;29;20031;-73
2022/07/31 05:09:57;;;;;;;15.52;12.00;;;;;;;23.69;100.00;100734.31;4946778;29;20110;-73
2022/07/31 05:12:43;;;;;;;13.95;12.48;;;;;;;24.13;100.00;100742.72;4946234;29;20118;-73
2022/07/31 05:15:28;;;;;;;14.25;12.80;;;;;;;24.55;100.00;100742.25;4958292;28;20027;-73
2022/07/31 05:18:14;;;;;;;14.95;12.48;;;;;;;24.26;100.00;100731.00;4958651;29;20031;-74
2022/07/31 05:21:00;;;;;;;15.02;12.07;;;;;;;24.32;100.00;100740.41;4945109;29;20106;-74
2022/07/31 05:23:48;;;;;;;13.88;11.85;;;;;;;24.63;100.00;100735.34;4958331;28;20035;-74
2022/07/31 05:26:33;;;;;;;15.25;12.43;;;;;;;24.47;100.00;100729.41;4946146;29;20478;-73
2022/07/31 05:29:19;;;;;;;15.02;12.65;;;;;;;24.75;100.00;100738.97;4945147;29;20053;-73
2022/07/31 05:32:05;;;;;;;14.30;12.80;;;;;;;25.04;100.00;100742.97;4944684;29;20491;-72
2022/07/31 05:34:51;;;;;;;13.52;12.07;;;;;;;24.23;100.00;100744.59;4957157;28;20536;-74
2022/07/31 05:37:37;;;;;;;13.75;12.25;;;;;;;24.76;100.00;100749.56;4958454;29;20512;-72
2022/07/31 05:40:22;;;;;;;13.73;11.55;;;;;;;24.31;100.00;100757.47;4956785;29;20106;-74
2022/07/31 05:43:09;;;;;;;15.48;13.05;;;;;;;24.45;100.00;100765.31;4958985;29;20027;-73
2022/07/31 05:45:55;;;;;;;14.50;12.95;;;;;;;24.88;100.00;100764.72;4957766;29;20042;-74
2022/07/31 05:48:41;;;;;;;16.63;12.93;;;;;;;25.00;100.00;100762.94;4944467;29;20062;-74
2022/07/31 05:51:27;;;;;;;16.25;13.30;;;;;;;25.07;100.00;100761.50;4957980;29;20031;-74
2022/07/31 05:54:13;;;;;;;14.77;11.80;;;;;;;24.51;100.00;100764.88;4957700;28;20035;-74
2022/07/31 05:56:59;;;;;;;14.38;12.13;;;;;;;24.72;100.00;100757.94;4959381;29;20043;-73
2022/07/31 05:59:45;;;;;;;13.93;12.48;;;;;;;25.04;100.00;100756.38;4958204;29;20027;-72
2022/07/31 06:02:31;;;;;;;14.13;12.48;;;;;;;25.25;100.00;100760.94;4960431;28;20054;-73
2022/07/31 06:05:17;;;;;;;13.52;12.13;;;;;;;24.34;100.00;100763.44;4944430;29;20063;-73
2022/07/31 06:08:03;;;;;;;14.98;13.52;;;;;;;24.19;100.00;100761.88;4958103;29;20063;-74
2022/07/31 06:10:49;;;;;;;14.25;12.73;;;;;;;24.48;100.00;100767.78;4957814;29;20442;-73
2022/07/31 06:13:34;;;;;;;13.82;12.38;;;;;;;24.81;100.00;100760.78;4956678;28;20426;-73
2022/07/31 06:16:20;;;;;;;13.70;12.18;;;;;;;24.87;100.00;100767.53;4943878;29;20102;-73
2022/07/31 06:19:06;;;;;;;14.48;12.25;;;;;;;25.50;100.00;100770.63;4957198;29;20042;-73
2022/07/31 06:21:51;;;;;;;13.00;11.70;;;;;;;25.75;100.00;100765.03;4957829;29;20105;-74
2022/07/31 06:24:37;;;;;;;13.48;12.02;;;;;;;26.21;100.00;100763.97;4957516;28;20469;-74
2022/07/31 06:27:23;;;;;;;13.00;11.70;;;;;;;26.26;100.00;100759.06;4944091;29;20059;-74
2022/07/31 06:30:09;;;;;;;15.20;13.18;;;;;;;26.00;100.00;100759.47;4944235;29;20039;-73
2022/07/31 06:32:55;;;;;;;18.52;13.35;;;;;;;25.91;100.00;100749.41;4956695;29;20023;-74
2022/07/31 06:35:41;;;;;;;15.55;13.90;;;;;;;25.77;100.00;100749.69;4957095;29;20035;-74
2022/07/31 06:38:29;;;;;;;15.75;14.13;;;;;;;25.17;100.00;100758.00;4956695;29;20458;-72
2022/07/31 06:44:36;;;;;;;18.35;14.85;;;;;;;24.95;100.00;100749.88;4899193;29;20384;-74
2022/07/31 06:47:24;;;;;;;16.77;14.98;;;;;;;25.60;100.00;100751.00;4944544;28;20046;-74
2022/07/31 06:50:10;;;;;;;15.90;14.35;;;;;;;25.63;100.00;100753.44;4956416;29;20465;-72
2022/07/31 06:52:56;;;;;;;19.27;15.02;;;;;;;25.83;100.00;100749.19;4956999;29;20039;-73
2022/07/31 06:55:42;;;;;;;18.42;15.82;;;;;;;25.90;100.00;100751.28;4955818;29;20113;-73
2022/07/31 06:58:27;;;;;;;17.63;15.35;;;;;;;26.06;100.00;100750.91;4956798;29;20114;-74
2022/07/31 07:01:13;;;;;;;16.27;14.68;;;;;;;26.47;100.00;100745.69;4957232;29;20106;-73
2022/07/31 07:03:59;;;;;;;18.63;15.27;;;;;;;26.59;100.00;100758.16;4956006;28;20050;-73
2022/07/31 07:06:45;;;;;;;16.48;14.77;;;;;;;26.96;100.00;100754.06;4957099;29;20387;-73
2022/07/31 07:09:31;;;;;;;17.00;15.00;;;;;;;27.15;100.00;100754.22;4957802;28;20130;-73
2022/07/31 07:12:16;;;;;;;17.55;15.45;;;;;;;26.59;100.00;100750.94;4957313;29;20450;-73
2022/07/31 07:15:03;;;;;;;17.67;15.10;;;;;;;26.85;100.00;100754.97;4957115;28;20041;-74
2022/07/31 07:17:49;;;;;;;19.73;14.63;;;;;;;26.94;100.00;100756.94;4956033;29;20034;-73
2022/07/31 07:20:34;;;;;;;15.38;13.32;;;;;;;27.23;100.00;100755.31;4956528;29;20023;-73
2022/07/31 07:23:21;;;;;;;13.23;11.93;;;;;;;27.51;100.00;100752.97;4956126;28;20033;-74
2022/07/31 07:26:07;;;;;;;14.90;12.88;;;;;;;27.87;100.00;100747.03;4956402;29;20054;-74
2022/07/31 07:28:53;;;;;;;16.25;14.55;;;;;;;27.30;100.00;100752.97;4956404;29;20035;-74
2022/07/31 07:31:39;;;;;;;16.20;14.50;;;;;;;27.76;100.00;100749.81;4942409;29;20027;-73
2022/07/31 07:34:25;;;;;;;17.70;13.80;;;;;;;27.15;100.00;100754.22;4956205;28;20042;-73
2022/07/31 07:37:11;;;;;;;14.85;13.35;;;;;;;27.39;100.00;100753.03;4956702;29;20051;-73
2022/07/31 07:39:57;;;;;;;14.80;13.30;;;;;;;27.33;100.00;100742.78;4957334;29;20102;-73
2022/07/31 07:42:43;;;;;;;16.40;14.70;;;;;;;27.23;100.00;100751.78;4942982;28;20023;-76
2022/07/31 07:45:29;;;;;;;16.33;14.52;;;;;;;27.52;100.00;100750.09;4959201;28;20027;-74
2022/07/31 07:48:15;;;;;;;15.77;14.25;;;;;;;27.65;100.00;100745.38;4946490;29;20042;-73
2022/07/31 07:51:01;;;;;;;17.48;14.93;;;;;;;27.57;100.00;100741.63;4960184;29;20101;-73
2022/07/31 07:53:47;;;;;;;16.63;14.95;;;;;;;27.64;100.00;100746.34;4958968;28;20035;-73
2022/07/31 07:56:32;;;;;;;15.88;14.23;;;;;;;27.21;100.00;100741.13;4946437;29;20362;-74
2022/07/31 07:59:18;;;;;;;15.93;14.35;;;;;;;27.75;100.00;100748.09;4946194;29;20027;-74
2022/07/31 08:02:04;;;;;;;14.18;12.68;;;;;;;28.13;100.00;100748.28;4959169;29;20102;-74
2022/07/31 08:04:50;;;;;;;14.90;13.40;;;;;;;28.00;100.00;100743.13;4959772;28;20085;-73
2022/07/31 08:07:38;;;;;;;15.48;13.85;;;;;;;27.36;100.00;100750.59;4946525;29;20093;-74
2022/07/31 08:10:23;;;;;;;16.38;13.48;;;;;;;27.76;100.00;100736.34;4959746;29;20094;-74
2022/07/31 08:13:10;;;;;;;15.48;13.98;;;;;;;28.24;100.00;100738.22;4946743;29;20035;-73
2022/07/31 08:15:55;;;;;;;15.07;13.57;;;;;;;27.96;100.00;100730.91;4946640;29;20364;-75
2022/07/31 08:18:41;;;;;;;15.82;14.00;;;;;;;28.23;100.00;100738.38;4959605;29;20114;-73
2022/07/31 08:21:27;;;;;;;15.02;13.63;;;;;;;28.56;100.00;100730.78;4959907;29;20110;-73
2022/07/31 08:24:15;;;;;;;15.20;13.70;;;;;;;28.04;100.00;100738.34;4959297;28;20035;-73
2022/07/31 08:30:07;;;;;;;18.02;16.23;;;;;;;28.71;100.00;100734.78;4959146;29;20031;-73
2022/07/31 08:32:52;;;;;;;21.17;17.67;;;;;;;29.18;100.00;100731.25;4959327;29;20075;-74
2022/07/31 08:35:38;;;;;;;27.10;17.17;;;;;;;28.36;100.00;100737.13;4958264;29;20110;-72
2022/07/31 08:38:24;;;;;;;18.60;16.60;;;;;;;28.59;100.00;100727.81;4958717;29;20031;-73
2022/07/31 08:41:12;;;;;;;16.85;15.25;;;;;;;29.50;100.00;100728.19;4959316;29;20366;-73
2022/07/31 08:43:58;;;;;;;16.95;15.18;;;;;;;29.11;100.00;100731.94;4945496;29;20398;-73
2022/07/31 08:46:45;;;;;;;17.02;15.32;;;;;;;28.80;100.00;100738.50;4959073;28;20079;-72
2022/07/31 08:49:35;;;;;;;18.10;16.30;;;;;;;29.36;100.00;100734.03;4959391;28;20031;-73
2022/07/31 08:52:24;;;;;;;17.13;15.45;;;;;;;29.15;100.00;100733.38;4958845;29;20031;-73
2022/07/31 08:55:11;;;;;;;18.73;16.83;;;;;;;28.80;100.00;100728.53;4957916;28;20042;-74
2022/07/31 08:57:57;;;;;;;19.15;17.25;;;;;;;29.18;100.00;100723.16;4958833;29;20038;-74
2022/07/31 09:00:43;;;;;;;21.50;18.73;;;;;;;28.95;100.00;100719.03;4958574;29;20094;-73
2022/07/31 09:03:29;;;;;;;19.63;17.75;;;;;;;29.85;100.00;100713.00;4959328;28;20042;-73
2022/07/31 09:06:15;;;;;;;21.27;19.17;;;;;;;30.21;100.00;100714.81;4958366;29;20085;-72
2022/07/31 09:09:00;;;;;;;23.05;20.85;;;;;;;30.07;100.00;100709.03;4959308;29;20066;-73
2022/07/31 09:11:52;;;;;;;21.88;19.70;;;;;;;30.34;100.00;100718.00;4957946;29;20133;-73
2022/07/31 09:14:38;;;;;;;20.27;18.38;;;;;;;29.77;100.00;100714.75;4958222;28;20019;-73
2022/07/31 09:17:35;;;;;;;20.38;18.38;;;;;;;30.36;100.00;100710.59;4956704;29;20386;-73
2022/07/31 09:20:25;;;;;;;22.10;19.98;;;;;;;30.24;100.00;100705.53;4960592;29;20027;-73
2022/07/31 09:23:11;;;;;;;20.55;18.55;;;;;;;30.62;100.00;100702.56;4961159;29;20031;-73
2022/07/31 09:25:59;;;;;;;21.88;19.58;;;;;;;30.33;100.00;100707.31;4957355;29;20426;-72
2022/07/31 09:28:51;;;;;;;21.90;18.60;;;;;;;30.34;100.00;100701.78;4957953;29;20031;-72
2022/07/31 09:31:38;;;;;;;21.77;19.48;;;;;;;30.76;100.00;100702.91;4957716;29;20089;-74
2022/07/31 09:34:27;;;;;;;23.08;20.55;;;;;;;31.10;100.00;100708.44;4957424;28;20027;-77
2022/07/31 09:37:15;;;;;;;23.30;20.98;;;;;;;31.23;100.00;100704.31;4957579;29;20031;-74
2022/07/31 09:40:01;;;;;;;25.08;22.58;;;;;;;31.49;100.00;100696.19;4957529;29;20055;-74
2022/07/31 09:42:49;;;;;;;24.02;21.60;;;;;;;31.15;100.00;100704.22;4944173;29;20369;-73
2022/07/31 09:45:35;;;;;;;24.95;22.45;;;;;;;31.11;100.00;100702.84;4958045;29;20130;-73
2022/07/31 09:48:21;;;;;;;24.90;22.40;;;;;;;30.99;100.00;100709.50;4957576;29;20133;-73
2022/07/31 09:51:07;;;;;;;22.90;20.63;;;;;;;31.28;100.00;100707.41;4957559;29;20027;-73
2022/07/31 09:53:55;;;;;;;24.08;21.65;;;;;;;30.40;100.00;100703.00;4957617;28;20446;-74
2022/07/31 09:56:42;;;;;;;22.63;20.25;;;;;;;30.79;100.00;100699.88;4957674;29;20027;-74
2022/07/31 09:59:28;;;;;;;23.25;20.67;;;;;;;31.09;100.00;100699.44;4943870;29;20027;-72
2022/07/31 10:02:17;;;;;;;22.55;20.25;;;;;;;30.87;100.00;100705.34;4958656;29;20106;-73
2022/07/31 10:05:04;;;;;;;21.67;19.38;;;;;;;30.88;100.00;100704.38;4958140;28;20418;-72
2022/07/31 10:07:50;;;;;;;22.38;20.17;;;;;;;29.99;100.00;100700.84;4943402;29;20041;-73
2022/07/31 10:10:37;;;;;;;21.60;19.40;;;;;;;31.13;100.00;100698.13;4958128;28;20369;-73
2022/07/31 10:13:23;;;;;;;21.05;18.95;;;;;;;30.90;100.00;100698.81;4957608;28;20023;-73
2022/07/31 10:16:09;;;;;;;20.52;18.52;;;;;;;30.99;100.00;100695.97;4957692;29;20046;-73
2022/07/31 10:18:59;;;;;;;18.42;16.65;;;;;;;31.58;97.13;100681.66;4957436;29;20448;-74
2022/07/31 10:21:53;;;;;;;24.80;20.40;;;;;;;30.84;100.00;100685.88;4944173;29;20390;-73
2022/07/31 10:24:44;;;;;;;20.58;18.48;;;;;;;31.38;98.98;100687.50;4956592;28;20050;-74
2022/07/31 10:27:31;;;;;;;20.35;18.25;;;;;;;30.94;100.00;100692.06;4957118;29;20058;-74
2022/07/31 10:30:17;;;;;;;19.48;17.52;;;;;;;30.98;100.00;100686.16;4943258;29;20115;-73
2022/07/31 10:33:05;;;;;;;21.38;18.58;;;;;;;30.05;100.00;100682.16;4957449;29;20046;-73
2022/07/31 10:36:16;;;;;;;20.55;18.45;;;;;;;31.11;100.00;100681.19;4957090;29;20126;-73
2022/07/31 10:39:28;;;;;;;19.90;17.88;;;;;;;29.46;100.00;100662.84;4957031;29;20442;-73
2022/07/31 10:42:36;;;;;;;18.80;16.92;;;;;;;30.40;100.00;100660.63;4956588;29;20039;-74
2022/07/31 10:45:22;;;;;;;19.98;17.88;;;;;;;30.91;100.00;100659.91;4957543;28;20062;-73
2022/07/31 10:48:10;;;;;;;18.60;16.75;;;;;;;30.83;100.00;100649.00;4956270;28;20038;-74
2022/07/31 10:51:04;;;;;;;18.80;16.90;;;;;;;31.49;100.00;100641.19;4956728;29;20038;-73
2022/07/31 10:53:58;;;;;;;17.30;15.60;;;;;;;30.65;100.00;100642.72;4943924;28;20422;-73
2022/07/31 10:56:45;;;;;;;18.33;16.52;;;;;;;30.97;100.00;100629.47;4956039;29;20027;-73
2022/07/31 10:59:30;;;;;;;17.92;16.08;;;;;;;31.25;100.00;100626.50;4957479;29;20461;-74
2022/07/31 11:02:31;;;;;;;17.10;15.30;;;;;;;31.31;100.00;100617.72;4957465;29;20068;-74
2022/07/31 11:05:22;;;;;;;17.10;15.40;;;;;;;31.99;98.52;100623.94;4957276;28;20075;-73
2022/07/31 11:08:07;;;;;;;21.25;16.15;;;;;;;31.25;100.00;100615.66;4956601;29;20027;-74
2022/07/31 11:10:55;;;;;;;17.25;14.95;;;;;;;31.84;95.82;100614.75;4955556;29;20422;-73
2022/07/31 11:13:54;;;;;;;17.08;15.38;;;;;;;32.12;94.97;100618.88;4955926;28;20126;-74
2022/07/31 11:16:50;;;;;;;16.23;14.63;;;;;;;31.39;97.79;100601.50;4955647;29;20031;-73
2022/07/31 11:19:41;;;;;;;16.00;14.40;;;;;;;30.80;99.99;100597.91;4955899;29;20030;-73
2022/07/31 11:22:27;;;;;;;16.38;14.75;;;;;;;31.09;100.00;100593.00;4955479;29;20063;-74
2022/07/31 11:25:13;;;;;;;16.17;14.57;;;;;;;31.80;95.84;100598.97;4956181;28;20035;-73
2022/07/31 11:28:09;;;;;;;16.98;15.30;;;;;;;30.75;100.00;100587.59;4956251;29;20042;-73
2022/07/31 11:30:58;;;;;;;14.93;13.43;;;;;;;31.60;96.27;100584.84;4955314;29;20027;-74
2022/07/31 11:33:46;;;;;;;16.20;14.48;;;;;;;31.65;97.06;100578.94;4956129;28;20024;-74
2022/07/31 11:36:32;;;;;;;14.68;13.27;;;;;;;31.11;99.66;100572.06;4955826;29;20031;-74
2022/07/31 11:39:18;;;;;;;14.23;12.70;;;;;;;31.26;95.03;100586.75;4956637;29;20106;-74
2022/07/31 11:42:04;;;;;;;14.55;12.63;;;;;;;31.91;92.67;100574.28;4955668;29;20031;-73
2022/07/31 11:44:51;;;;;;;13.15;11.85;;;;;;;32.20;89.38;100580.09;4955674;28;20031;-73
2022/07/31 11:47:38;;;;;;;11.27;10.07;;;;;;;32.07;86.07;100579.72;4955822;29;20079;-73
2022/07/31 11:50:29;;;;;;;10.80;9.80;;;;;;;32.07;86.08;100571.59;4955670;29;20370;-74
2022/07/31 11:53:15;;;;;;;11.73;10.52;;;;;;;31.40;90.10;100572.56;4956061;28;20031;-73
2022/07/31 11:56:02;;;;;;;12.15;10.57;;;;;;;31.10;91.82;100568.50;4942013;29;20114;-73
2022/07/31 11:58:54;;;;;;;12.23;10.95;;;;;;;31.02;93.31;100571.16;4956142;29;20035;-73
2022/07/31 12:01:39;;;;;;;11.95;10.82;;;;;;;30.57;97.36;100562.38;4955493;29;20035;-73
2022/07/31 12:04:25;;;;;;;11.27;10.27;;;;;;;30.66;97.79;100564.13;4955248;28;20035;-73
2022/07/31 12:07:11;;;;;;;10.52;9.50;;;;;;;30.69;99.02;100563.84;4954900;29;20370;-74
2022/07/31 12:09:57;;;;;;;11.73;9.73;;;;;;;30.54;96.82;100565.38;4955113;29;20034;-74
2022/07/31 12:12:43;;;;;;;10.23;9.23;;;;;;;31.53;94.25;100554.00;4956084;29;20031;-73
2022/07/31 12:15:29;;;;;;;11.68;9.55;;;;;;;31.54;92.18;100560.25;4956522;28;20126;-72
2022/07/31 12:18:15;;;;;;;9.15;8.25;;;;;;;31.60;89.73;100555.03;4955415;29;20027;-73
2022/07/31 12:21:03;;;;;;;9.43;8.43;;;;;;;32.17;84.30;100556.88;4942153;29;20109;-73
2022/07/31 12:23:51;;;;;;;9.98;7.22;;;;;;;32.08;77.87;100557.03;4955628;28;20400;-74
2022/07/31 12:26:36;;;;;;;7.35;5.75;;;;;;;32.09;75.75;100550.56;4956164;29;20051;-73
2022/07/31 12:29:34;;;;;;;6.20;5.00;;;;;;;31.68;72.70;100540.66;4956527;28;20058;-74
2022/07/31 12:32:24;;;;;;;6.20;5.22;;;;;;;31.57;73.72;100540.97;4959113;29;20075;-72
2022/07/31 12:35:10;;;;;;;6.07;5.40;;;;;;;32.20;71.78;100545.69;4959937;28;20035;-74
2022/07/31 12:37:57;;;;;;;6.10;5.43;;;;;;;31.85;73.13;100542.44;4960019;29;20023;-74
2022/07/31 12:40:43;;;;;;;5.40;4.85;;;;;;;32.22;71.38;100545.53;4946682;29;20098;-74
2022/07/31 12:43:29;;;;;;;5.75;5.25;;;;;;;31.70;72.40;100555.72;4959928;28;20441;-74